Time;durP1;ratioP1;P1;durP2;ratioP2;P2;SDS_P1;SDS_P2;PMS_P1;PMS_P2;Temp;Humidity;BMP_temperature;BMP_pressure;BME280_temperature;BME280_humidity;BME280_pressure;Samples;Min_cycle;Max_cycle;Signal;HPM_P1;HPM_P2
2023/04/25 00:01:28;;;;;;;7.90;4.10;;;7.60;99.90;;;;;;5038094;28;20697;-62
2023/04/25 00:03:54;;;;;;;10.05;4.25;;;7.60;99.90;;;;;;5041080;28;20217;-62
2023/04/25 00:06:26;;;;;;;8.52;3.67;;;7.60;99.90;;;;;;5038461;28;20206;-62
2023/04/25 00:08:53;;;;;;;10.05;4.60;;;7.50;99.90;;;;;;5037305;28;20190;-62
2023/04/25 00:11:19;;;;;;;13.25;4.85;;;7.50;99.90;;;;;;5036157;28;20586;-61
2023/04/25 00:13:46;;;;;;;14.52;5.28;;;7.50;99.90;;;;;;5035337;28;20206;-60
2023/04/25 00:16:15;;;;;;;7.10;4.25;;;7.50;99.90;;;;;;5035771;28;20241;-62
2023/04/25 00:18:42;;;;;;;9.05;4.57;;;7.50;99.90;;;;;;5034947;28;20206;-63
2023/04/25 00:21:10;;;;;;;9.98;5.40;;;7.50;99.90;;;;;;5056911;22;20229;-65
2023/04/25 00:23:38;;;;;;;9.32;5.88;;;7.50;99.90;;;;;;5033071;28;20206;-66
2023/04/25 00:26:05;;;;;;;8.20;4.20;;;7.50;99.90;;;;;;5033279;28;20285;-66
2023/04/25 00:28:32;;;;;;;6.05;3.90;;;7.60;99.90;;;;;;5038224;28;20201;-66
2023/04/25 00:30:59;;;;;;;10.40;4.65;;;7.60;99.90;;;;;;5038290;28;20708;-66
2023/04/25 00:33:26;;;;;;;8.93;4.35;;;7.60;99.90;;;;;;5037570;28;20248;-67
2023/04/25 00:35:52;;;;;;;9.95;4.70;;;7.60;99.90;;;;;;5036647;28;20726;-66
2023/04/25 00:38:19;;;;;;;10.95;5.00;;;7.60;99.90;;;;;;5036993;28;20202;-66
2023/04/25 00:40:47;;;;;;;9.75;4.22;;;7.60;99.90;;;;;;5037123;28;20206;-67
2023/04/25 00:43:14;;;;;;;10.63;4.15;;;7.60;99.90;;;;;;5037883;28;20210;-66
2023/04/25 00:45:41;;;;;;;8.68;4.10;;;7.60;99.90;;;;;;5037338;28;20214;-66
2023/04/25 00:48:08;;;;;;;8.50;4.30;;;7.60;99.90;;;;;;5037677;28;20210;-66
2023/04/25 00:50:36;;;;;;;11.82;4.30;;;7.60;99.90;;;;;;5037732;28;20202;-66
2023/04/25 00:53:04;;;;;;;7.75;4.35;;;7.60;99.90;;;;;;5037477;28;20580;-65
2023/04/25 00:55:32;;;;;;;11.25;4.38;;;7.60;99.90;;;;;;5037780;28;20202;-67
2023/04/25 00:58:00;;;;;;;6.18;3.80;;;7.60;99.90;;;;;;5037175;28;20269;-66
2023/04/25 01:00:27;;;;;;;7.95;4.53;;;7.60;99.90;;;;;;5037312;28;20205;-67
2023/04/25 01:02:54;;;;;;;6.82;4.40;;;7.60;99.90;;;;;;5037517;28;20555;-65
2023/04/25 01:05:21;;;;;;;9.30;4.47;;;7.70;99.90;;;;;;5037128;28;20228;-65
2023/04/25 01:07:48;;;;;;;8.10;4.93;;;7.70;99.90;;;;;;5036759;28;20205;-65
2023/04/25 01:10:15;;;;;;;6.68;3.67;;;7.70;99.90;;;;;;5036310;28;20621;-65
2023/04/25 01:12:41;;;;;;;8.70;4.63;;;7.60;99.90;;;;;;5036755;28;20237;-66
2023/04/25 01:15:10;;;;;;;6.32;4.70;;;7.60;99.90;;;;;;5036447;28;20202;-66
2023/04/25 01:17:37;;;;;;;8.60;5.07;;;7.60;99.90;;;;;;5035889;28;20214;-66
2023/04/25 01:20:05;;;;;;;9.05;4.20;;;7.60;99.90;;;;;;5036079;28;20569;-66
2023/04/25 01:22:34;;;;;;;10.90;4.70;;;7.60;99.90;;;;;;5035814;28;20240;-66
2023/04/25 01:25:01;;;;;;;8.68;4.97;;;7.60;99.90;;;;;;5036367;28;20210;-66
2023/04/25 01:27:29;;;;;;;9.82;4.95;;;7.60;99.90;;;;;;5036364;28;20245;-65
2023/04/25 01:29:56;;;;;;;6.30;4.40;;;7.60;99.90;;;;;;5035831;28;20748;-66
2023/04/25 01:32:24;;;;;;;10.93;5.90;;;7.60;99.90;;;;;;5036094;28;20226;-66
2023/04/25 01:34:51;;;;;;;5.97;5.13;;;7.60;99.90;;;;;;5036167;28;20202;-66
2023/04/25 01:37:18;;;;;;;7.20;4.85;;;7.60;99.90;;;;;;5036037;28;20249;-66
2023/04/25 01:39:46;;;;;;;10.20;5.07;;;7.50;99.90;;;;;;5035547;28;20217;-66
2023/04/25 01:42:14;;;;;;;9.55;4.78;;;7.60;99.90;;;;;;5036080;28;20261;-66
2023/04/25 01:44:40;;;;;;;8.85;5.13;;;7.60;99.90;;;;;;5036343;28;20202;-66
2023/04/25 01:47:07;;;;;;;11.43;5.32;;;7.60;99.90;;;;;;5036961;28;20194;-67
2023/04/25 01:49:34;;;;;;;8.90;4.88;;;7.60;99.90;;;;;;5036108;28;20676;-65
2023/04/25 01:52:01;;;;;;;15.80;5.20;;;7.60;99.90;;;;;;5035869;28;20222;-65
2023/04/25 01:54:28;;;;;;;7.70;4.90;;;7.60;99.90;;;;;;5035387;28;20672;-66
2023/04/25 01:56:58;;;;;;;7.70;5.15;;;7.60;99.90;;;;;;5035523;28;20222;-66
2023/04/25 01:59:25;;;;;;;12.85;6.13;;;7.60;99.90;;;;;;5035366;28;20191;-66
2023/04/25 02:01:52;;;;;;;9.70;5.38;;;7.60;99.90;;;;;;5035996;28;20223;-67
2023/04/25 02:04:18;;;;;;;10.75;5.50;;;7.60;99.90;;;;;;5035257;28;20703;-66
2023/04/25 02:06:45;;;;;;;7.38;4.53;;;7.60;99.90;;;;;;5035186;28;20202;-66
2023/04/25 02:09:12;;;;;;;9.95;5.20;;;7.60;99.90;;;;;;5035431;28;20260;-66
2023/04/25 02:11:39;;;;;;;9.10;5.53;;;7.50;99.90;;;;;;5035452;28;20229;-66
2023/04/25 02:14:07;;;;;;;8.98;5.25;;;7.50;99.90;;;;;;5035261;28;20210;-66
2023/04/25 02:16:35;;;;;;;6.25;5.65;;;7.50;99.90;;;;;;5035010;28;20585;-66
2023/04/25 02:19:02;;;;;;;10.52;6.53;;;7.40;99.90;;;;;;5035068;28;20286;-66
2023/04/25 02:21:30;;;;;;;12.80;5.25;;;7.30;99.90;;;;;;5034869;28;20614;-66
2023/04/25 02:23:57;;;;;;;10.20;5.05;;;7.20;99.90;;;;;;5034792;28;20210;-66
2023/04/25 02:26:24;;;;;;;10.07;5.88;;;7.00;99.90;;;;;;5035199;28;20225;-66
2023/04/25 02:28:51;;;;;;;8.05;3.67;;;6.90;99.90;;;;;;5035826;28;20256;-67
2023/04/25 02:31:19;;;;;;;9.75;4.15;;;6.80;99.90;;;;;;5035098;28;20226;-66
2023/04/25 02:33:46;;;;;;;9.32;4.95;;;6.70;99.90;;;;;;5034978;28;20205;-66
2023/04/25 02:36:13;;;;;;;7.30;4.50;;;6.60;99.90;;;;;;5037483;28;20229;-66
2023/04/25 02:38:40;;;;;;;10.32;5.65;;;6.60;99.90;;;;;;5034879;28;20198;-65
2023/04/25 02:41:07;;;;;;;8.70;3.83;;;6.60;99.90;;;;;;5034846;28;20313;-66
2023/04/25 02:43:33;;;;;;;6.20;4.57;;;6.60;99.90;;;;;;5034427;28;20672;-67
2023/04/25 02:46:00;;;;;;;5.20;3.45;;;6.60;99.90;;;;;;5034754;28;20234;-66
2023/04/25 02:48:29;;;;;;;10.95;4.40;;;6.60;99.90;;;;;;5034569;28;20203;-66
2023/04/25 02:50:56;;;;;;;8.32;4.10;;;6.60;99.90;;;;;;5034761;28;20334;-67
2023/04/25 02:53:22;;;;;;;12.25;5.53;;;6.60;99.90;;;;;;5035287;28;20217;-66
2023/04/25 02:55:49;;;;;;;8.82;4.25;;;6.60;99.90;;;;;;5034909;28;20215;-66
2023/04/25 02:58:16;;;;;;;11.60;3.83;;;6.60;99.90;;;;;;5034484;28;20313;-66
2023/04/25 03:00:43;;;;;;;8.40;3.67;;;6.60;99.90;;;;;;5034504;28;20203;-66
2023/04/25 03:03:10;;;;;;;10.38;3.70;;;6.60;99.90;;;;;;5034169;28;20282;-66
2023/04/25 03:05:38;;;;;;;11.80;4.13;;;6.70;99.90;;;;;;5034252;28;20249;-66
2023/04/25 03:08:05;;;;;;;8.90;3.72;;;6.60;99.90;;;;;;5034384;28;20225;-66
2023/04/25 03:10:32;;;;;;;9.40;4.15;;;6.70;99.90;;;;;;5034713;28;20229;-67
2023/04/25 03:12:59;;;;;;;8.32;4.00;;;6.70;99.90;;;;;;5033743;28;20212;-66
2023/04/25 03:15:25;;;;;;;14.90;5.15;;;6.60;99.90;;;;;;5034267;28;20208;-67
2023/04/25 03:17:52;;;;;;;16.65;3.78;;;6.60;99.90;;;;;;5034345;28;20222;-66
2023/04/25 03:20:19;;;;;;;11.73;4.05;;;6.60;99.90;;;;;;5033687;28;20683;-66
2023/04/25 03:22:47;;;;;;;12.32;3.97;;;6.60;99.90;;;;;;5033523;28;20234;-66
2023/04/25 03:25:13;;;;;;;8.02;4.30;;;6.60;99.90;;;;;;5033932;28;20214;-66
2023/04/25 03:27:40;;;;;;;8.70;4.55;;;6.60;99.90;;;;;;5034039;28;20202;-66
2023/04/25 03:30:08;;;;;;;18.65;3.78;;;6.60;99.90;;;;;;5033629;28;20568;-66
2023/04/25 03:32:35;;;;;;;12.52;3.70;;;6.60;99.90;;;;;;5033853;28;20222;-66
2023/04/25 03:35:02;;;;;;;11.55;3.80;;;6.60;99.90;;;;;;5034053;28;20214;-66
2023/04/25 03:37:28;;;;;;;8.90;3.33;;;6.70;99.90;;;;;;5033584;28;20218;-66
2023/04/25 03:39:56;;;;;;;10.30;3.55;;;6.70;99.90;;;;;;5033823;28;20229;-66
2023/04/25 03:42:23;;;;;;;9.93;4.10;;;6.70;99.90;;;;;;5033121;28;20597;-66
2023/04/25 03:44:50;;;;;;;12.20;4.53;;;6.70;99.90;;;;;;5033102;28;20688;-66
2023/04/25 03:47:17;;;;;;;9.82;3.92;;;6.70;99.90;;;;;;5033691;28;20209;-66
2023/04/25 03:49:44;;;;;;;7.88;3.78;;;6.70;99.90;;;;;;5034078;28;20221;-66
2023/04/25 03:52:11;;;;;;;10.90;4.00;;;6.70;99.90;;;;;;5033627;28;20735;-66
2023/04/25 03:54:37;;;;;;;9.50;4.88;;;6.70;99.90;;;;;;5033696;28;20215;-66
2023/04/25 03:57:06;;;;;;;21.20;4.85;;;6.70;99.90;;;;;;5033283;28;20218;-66
2023/04/25 03:59:32;;;;;;;14.77;5.15;;;6.70;99.90;;;;;;5033519;28;20210;-66
2023/04/25 04:01:59;;;;;;;10.63;4.57;;;6.70;99.90;;;;;;5033117;28;20218;-66
2023/04/25 04:04:26;;;;;;;5.32;4.07;;;6.70;99.90;;;;;;5033376;28;20281;-66
2023/04/25 04:06:53;;;;;;;9.52;4.20;;;6.60;99.90;;;;;;5033660;28;20232;-66
2023/04/25 04:11:39;;;;;;;11.63;3.78;;;6.60;99.90;;;;;;5111742;27;20560;-65
2023/04/25 04:14:05;;;;;;;15.85;3.90;;;6.60;99.90;;;;;;5111605;28;20204;-66
2023/04/25 04:16:32;;;;;;;14.43;4.60;;;6.60;99.90;;;;;;5117134;28;20200;-66
2023/04/25 04:18:59;;;;;;;12.50;3.80;;;6.60;99.90;;;;;;5114714;28;20210;-65
2023/04/25 04:21:26;;;;;;;14.38;4.30;;;6.60;99.90;;;;;;5114096;28;20692;-65
2023/04/25 04:23:54;;;;;;;21.73;5.03;;;6.60;99.90;;;;;;5114274;28;20196;-66
2023/04/25 04:26:23;;;;;;;13.52;4.93;;;6.60;99.90;;;;;;5111582;28;20200;-66
2023/04/25 04:28:51;;;;;;;14.77;4.10;;;6.60;99.90;;;;;;5111538;28;20227;-66
2023/04/25 04:31:19;;;;;;;11.20;4.63;;;6.70;99.90;;;;;;5110546;28;20238;-66
2023/04/25 04:33:46;;;;;;;14.35;4.28;;;6.60;99.90;;;;;;5111080;28;20204;-66
2023/04/25 04:36:13;;;;;;;11.43;4.05;;;6.60;99.90;;;;;;5111377;28;20196;-66
2023/04/25 04:38:40;;;;;;;17.15;4.38;;;6.70;99.90;;;;;;5111999;28;20216;-66
2023/04/25 04:41:08;;;;;;;13.85;4.40;;;6.70;99.90;;;;;;5112307;28;20241;-65
2023/04/25 04:43:34;;;;;;;14.20;4.72;;;6.70;99.90;;;;;;5111462;28;20200;-66
2023/04/25 04:46:03;;;;;;;15.98;4.05;;;6.70;99.90;;;;;;5111138;28;20200;-66
2023/04/25 04:48:32;;;;;;;14.07;4.22;;;6.70;99.90;;;;;;5110916;28;20210;-66
2023/04/25 04:50:59;;;;;;;24.23;4.47;;;6.70;99.90;;;;;;5110549;28;20220;-66
2023/04/25 04:53:26;;;;;;;9.68;4.15;;;6.80;99.90;;;;;;5110813;28;20207;-67
2023/04/25 04:55:52;;;;;;;8.13;4.43;;;6.80;99.90;;;;;;5110709;28;20203;-67
2023/04/25 04:58:19;;;;;;;12.40;4.20;;;6.80;99.90;;;;;;5110519;28;20689;-66
2023/04/25 05:00:46;;;;;;;16.30;5.13;;;6.80;99.90;;;;;;5110711;28;20203;-65
2023/04/25 05:03:14;;;;;;;10.35;4.13;;;6.80;99.90;;;;;;5110686;28;20196;-65
2023/04/25 05:05:41;;;;;;;12.73;3.50;;;6.80;99.90;;;;;;5111012;28;20207;-66
2023/04/25 05:08:08;;;;;;;21.33;4.72;;;6.80;99.90;;;;;;5110531;28;20576;-66
2023/04/25 05:10:35;;;;;;;16.15;5.13;;;6.90;99.90;;;;;;5109722;28;20701;-65
2023/04/25 05:13:02;;;;;;;12.35;4.28;;;6.90;99.90;;;;;;5111254;28;20287;-65
2023/04/25 05:15:29;;;;;;;12.55;3.50;;;6.90;99.90;;;;;;5110249;28;20204;-66
2023/04/25 05:17:56;;;;;;;11.88;3.90;;;7.00;99.90;;;;;;5111264;28;20200;-66
2023/04/25 05:20:24;;;;;;;8.82;4.00;;;7.00;99.90;;;;;;5111722;28;20207;-65
2023/04/25 05:22:51;;;;;;;15.55;4.75;;;7.00;99.90;;;;;;5097103;28;20220;-66
2023/04/25 05:25:18;;;;;;;12.15;4.40;;;7.10;99.90;;;;;;5097101;28;20200;-66
2023/04/25 05:27:45;;;;;;;10.38;3.72;;;7.10;99.90;;;;;;5096751;28;20591;-66
2023/04/25 05:30:12;;;;;;;16.13;4.63;;;7.10;99.90;;;;;;5097509;28;20325;-67
2023/04/25 05:32:40;;;;;;;9.45;3.67;;;7.10;99.90;;;;;;5096370;28;20681;-66
2023/04/25 05:35:08;;;;;;;16.08;5.88;;;7.20;99.90;;;;;;5096643;28;20215;-66
2023/04/25 05:37:36;;;;;;;7.78;4.03;;;7.20;99.90;;;;;;5095949;28;20206;-67
2023/04/25 05:40:06;;;;;;;13.48;4.47;;;7.20;99.90;;;;;;5096088;28;20203;-66
2023/04/25 05:42:33;;;;;;;19.98;4.78;;;7.30;99.90;;;;;;5096604;28;20311;-66
2023/04/25 05:45:00;;;;;;;11.80;3.42;;;7.40;99.90;;;;;;5095835;28;20204;-66
2023/04/25 05:47:27;;;;;;;6.88;3.15;;;7.50;99.90;;;;;;5096174;28;20739;-67
2023/04/25 05:49:54;;;;;;;11.23;3.30;;;7.50;99.90;;;;;;5096330;28;20204;-64
2023/04/25 05:52:21;;;;;;;7.40;3.28;;;7.60;99.90;;;;;;5096508;28;20224;-65
2023/04/25 05:54:49;;;;;;;8.80;3.50;;;7.60;99.90;;;;;;5096826;28;20211;-66
2023/04/25 05:57:23;;;;;;;12.55;4.40;;;7.70;99.90;;;;;;5096206;28;20286;-67
2023/04/25 05:59:50;;;;;;;7.70;3.60;;;7.70;99.90;;;;;;5096345;28;20211;-67
2023/04/25 06:02:17;;;;;;;10.07;4.00;;;7.80;99.90;;;;;;5096968;28;20722;-67
2023/04/25 06:04:44;;;;;;;12.30;3.70;;;7.80;99.90;;;;;;5096051;28;20299;-67
2023/04/25 06:07:11;;;;;;;9.00;3.20;;;8.00;99.90;;;;;;5096383;28;20236;-66
2023/04/25 06:09:38;;;;;;;9.82;3.05;;;8.00;99.90;;;;;;5096215;28;20208;-66
2023/04/25 06:12:07;;;;;;;9.15;3.88;;;8.00;99.90;;;;;;5096971;28;20311;-68
2023/04/25 06:14:34;;;;;;;8.63;3.72;;;8.00;99.90;;;;;;5098310;28;20235;-66
2023/04/25 06:17:06;;;;;;;14.27;4.57;;;8.00;99.90;;;;;;5097547;28;20204;-64
2023/04/25 06:19:32;;;;;;;12.05;4.45;;;8.00;99.90;;;;;;5098424;28;20676;-67
2023/04/25 06:21:59;;;;;;;9.73;3.78;;;8.00;99.50;;;;;;5091614;22;20231;-65
2023/04/25 06:24:26;;;;;;;13.77;3.40;;;8.00;99.50;;;;;;5034735;28;20197;-64
2023/04/25 06:26:53;;;;;;;14.45;3.78;;;8.00;99.50;;;;;;5035078;28;20237;-65
2023/04/25 06:29:22;;;;;;;17.23;3.33;;;8.00;99.40;;;;;;5034372;28;20229;-64
2023/04/25 06:31:50;;;;;;;13.05;4.57;;;8.10;99.10;;;;;;5034143;28;20237;-64
2023/04/25 06:34:17;;;;;;;8.82;3.70;;;8.10;98.70;;;;;;5034178;28;20221;-64
2023/04/25 06:36:44;;;;;;;10.13;3.45;;;8.10;98.10;;;;;;5035458;28;20206;-63
2023/04/25 06:39:11;;;;;;;9.73;3.88;;;8.10;97.60;;;;;;5034366;28;20271;-64
2023/04/25 06:41:38;;;;;;;10.98;3.60;;;8.00;97.30;;;;;;5034339;28;20214;-63
2023/04/25 06:44:07;;;;;;;12.27;3.38;;;8.00;97.30;;;;;;5034253;28;20225;-63
2023/04/25 06:46:36;;;;;;;15.18;4.47;;;8.00;97.00;;;;;;5034393;28;20293;-63
2023/04/25 06:49:02;;;;;;;12.68;3.33;;;8.10;96.70;;;;;;5034182;28;20258;-61
2023/04/25 06:51:30;;;;;;;12.35;3.50;;;8.20;96.00;;;;;;5034334;28;20230;-63
2023/04/25 06:54:03;;;;;;;14.43;3.30;;;8.20;95.50;;;;;;5034324;28;20270;-67
2023/04/25 06:56:30;;;;;;;5.88;3.08;;;8.40;95.30;;;;;;5034591;28;20190;-64
2023/04/25 06:59:01;;;;;;;7.63;3.08;;;8.60;94.10;;;;;;5034670;28;20233;-65
2023/04/25 07:01:28;;;;;;;12.15;3.42;;;8.70;93.10;;;;;;5034554;28;20277;-62
2023/04/25 07:03:56;;;;;;;11.13;3.65;;;8.70;92.80;;;;;;5036093;28;20242;-64
2023/04/25 07:06:23;;;;;;;12.63;3.50;;;8.80;92.60;;;;;;5035348;28;20214;-64
2023/04/25 07:08:49;;;;;;;10.93;3.50;;;8.90;91.30;;;;;;5035257;28;20198;-63
2023/04/25 07:11:16;;;;;;;13.27;3.95;;;8.90;91.00;;;;;;5034564;28;20223;-65
2023/04/25 07:13:43;;;;;;;6.05;2.40;;;9.00;90.30;;;;;;5034048;28;20266;-63
2023/04/25 07:16:10;;;;;;;5.93;2.88;;;9.10;87.80;;;;;;5034155;28;20285;-64
2023/04/25 07:18:37;;;;;;;8.30;2.60;;;8.90;86.20;;;;;;5034321;28;20222;-62
2023/04/25 07:21:05;;;;;;;5.22;2.28;;;8.80;87.40;;;;;;5035904;28;20207;-64
2023/04/25 07:23:32;;;;;;;9.48;2.83;;;8.80;88.40;;;;;;5036201;28;20214;-64
2023/04/25 07:25:59;;;;;;;9.70;2.92;;;8.70;87.20;;;;;;5036822;28;20207;-63
2023/04/25 07:28:25;;;;;;;7.68;2.95;;;8.60;85.30;;;;;;5037260;28;20224;-64
2023/04/25 07:30:52;;;;;;;6.00;2.60;;;8.60;85.80;;;;;;5036845;28;20572;-62
2023/04/25 07:33:20;;;;;;;8.95;2.95;;;8.60;84.60;;;;;;5036131;28;20198;-63
2023/04/25 07:35:47;;;;;;;8.32;3.00;;;8.60;82.20;;;;;;5035965;28;20293;-63
2023/04/25 07:38:15;;;;;;;9.45;2.60;;;8.50;82.00;;;;;;5035356;28;20206;-64
2023/04/25 07:40:41;;;;;;;6.67;2.17;;;8.60;82.00;;;;;;5033664;28;20576;-61
2023/04/25 07:43:08;;;;;;;7.43;2.17;;;8.70;81.90;;;;;;5033431;28;20556;-64
2023/04/25 07:45:35;;;;;;;7.80;3.20;;;8.80;81.90;;;;;;5033627;28;20285;-64
2023/04/25 07:48:02;;;;;;;8.95;2.67;;;8.80;80.50;;;;;;5033491;28;20198;-63
2023/04/25 07:50:30;;;;;;;6.47;2.58;;;8.80;79.80;;;;;;5033588;28;20730;-62
2023/04/25 07:52:58;;;;;;;11.63;2.53;;;8.90;80.00;;;;;;5033235;28;20690;-62
2023/04/25 07:55:26;;;;;;;3.30;1.48;;;8.90;78.30;;;;;;5033669;28;20206;-63
2023/04/25 07:57:53;;;;;;;6.35;2.53;;;9.00;76.40;;;;;;5033400;28;20209;-63
2023/04/25 08:00:20;;;;;;;6.10;2.15;;;8.90;76.90;;;;;;5033057;28;20218;-62
2023/04/25 08:02:47;;;;;;;7.70;2.85;;;8.90;76.00;;;;;;5033408;28;20309;-63
2023/04/25 08:05:14;;;;;;;7.43;3.40;;;9.00;74.00;;;;;;5034140;28;20206;-63
2023/04/25 08:07:41;;;;;;;6.53;2.10;;;8.90;72.20;;;;;;5034748;28;20296;-63
2023/04/25 08:10:11;;;;;;;6.78;3.45;;;8.90;72.60;;;;;;5033258;28;20206;-62
2023/04/25 08:12:39;;;;;;;6.90;2.53;;;9.00;73.00;;;;;;5033179;28;20292;-64
2023/04/25 08:15:07;;;;;;;6.22;2.70;;;9.10;72.00;;;;;;5032612;28;20931;-63
2023/04/25 08:17:34;;;;;;;6.75;2.47;;;9.20;71.10;;;;;;5032594;28;20202;-63
2023/04/25 08:20:00;;;;;;;4.72;2.45;;;9.30;69.80;;;;;;5032527;28;20221;-63
2023/04/25 08:22:27;;;;;;;8.85;3.22;;;9.20;69.70;;;;;;5032843;28;20226;-64
2023/04/25 08:24:54;;;;;;;7.03;2.97;;;9.20;69.40;;;;;;5032727;28;20228;-64
2023/04/25 08:27:21;;;;;;;8.10;2.53;;;9.30;69.10;;;;;;5032578;28;20206;-63
2023/04/25 08:29:50;;;;;;;12.07;3.28;;;9.50;67.80;;;;;;5032735;28;20490;-63
2023/04/25 08:32:17;;;;;;;7.25;1.70;;;9.60;66.40;;;;;;5032985;28;20258;-63
2023/04/25 08:34:45;;;;;;;5.70;1.70;;;9.70;64.70;;;;;;5032577;28;20212;-64
2023/04/25 08:37:12;;;;;;;7.47;2.10;;;9.80;64.00;;;;;;5032930;28;20463;-63
2023/04/25 08:39:38;;;;;;;10.43;2.60;;;9.90;61.60;;;;;;5033451;28;20460;-64
2023/04/25 08:42:10;;;;;;;3.43;1.97;;;10.00;59.80;;;;;;5033125;28;20471;-65
2023/04/25 08:44:37;;;;;;;4.93;1.70;;;10.20;59.40;;;;;;5032928;28;20907;-63
2023/04/25 08:47:08;;;;;;;6.00;2.07;;;10.30;57.60;;;;;;5033962;28;20455;-64
2023/04/25 08:49:36;;;;;;;5.57;1.93;;;10.40;54.50;;;;;;5033344;28;20452;-66
2023/04/25 08:52:06;;;;;;;9.00;2.20;;;10.50;53.90;;;;;;5032663;28;20490;-65
2023/04/25 08:54:34;;;;;;;4.17;1.80;;;10.70;53.00;;;;;;5034800;28;20463;-64
2023/04/25 08:57:03;;;;;;;6.43;2.00;;;10.60;52.20;;;;;;5033947;28;20456;-64
2023/04/25 08:59:31;;;;;;;3.97;2.17;;;10.50;52.40;;;;;;5036126;28;20509;-63
2023/04/25 09:01:58;;;;;;;5.50;1.83;;;10.30;52.70;;;;;;5036033;28;20457;-65
2023/04/25 09:04:26;;;;;;;4.93;2.17;;;10.20;53.10;;;;;;5036723;28;20453;-65
2023/04/25 09:06:53;;;;;;;3.53;1.50;;;10.20;53.60;;;;;;5036048;28;20540;-65
2023/04/25 09:09:21;;;;;;;5.00;2.40;;;10.10;53.90;;;;;;5036198;28;20460;-63
2023/04/25 09:11:48;;;;;;;4.60;1.90;;;10.00;54.10;;;;;;5035555;28;20951;-64
2023/04/25 09:14:16;;;;;;;4.23;2.10;;;10.00;54.20;;;;;;5035938;28;20445;-63
2023/04/25 09:17:00;;;;;;;3.60;1.83;;;9.80;54.80;;;;;;5036108;28;20964;-62
2023/04/25 09:19:30;;;;;;;2.23;1.10;;;9.60;54.00;;;;;;5035735;28;20193;-63
2023/04/25 09:21:58;;;;;;;6.07;1.73;;;9.60;54.10;;;;;;5035925;28;20488;-66
2023/04/25 09:24:35;;;;;;;5.80;2.10;;;9.70;54.00;;;;;;5035935;28;20449;-64
2023/04/25 09:27:04;;;;;;;2.05;1.70;;;9.80;54.10;;;;;;5035704;28;20436;-64
2023/04/25 09:29:32;;;;;;;5.63;1.50;;;10.00;51.60;;;;;;5035276;28;20704;-64
2023/04/25 09:32:21;;;;;;;2.37;1.50;;;10.10;49.60;;;;;;5035245;28;20480;-64
2023/04/25 09:34:50;;;;;;;4.22;1.95;;;10.10;48.20;;;;;;5031061;28;20445;-64
2023/04/25 09:37:21;;;;;;;4.40;1.80;;;10.20;47.20;;;;;;5035447;28;20202;-63
2023/04/25 09:39:49;;;;;;;4.90;1.75;;;10.20;46.60;;;;;;5035247;28;20931;-63
2023/04/25 09:42:17;;;;;;;4.87;1.30;;;10.30;46.20;;;;;;5036018;28;20339;-64
2023/04/25 09:44:45;;;;;;;3.80;1.50;;;10.40;46.20;;;;;;5035730;28;20457;-63
2023/04/25 09:47:13;;;;;;;5.00;1.83;;;10.40;46.00;;;;;;5035392;28;20456;-63
2023/04/25 09:49:42;;;;;;;4.00;1.80;;;10.50;45.60;;;;;;5035351;28;20487;-62
2023/04/25 09:52:15;;;;;;;3.77;1.50;;;10.50;45.20;;;;;;5035423;28;20489;-63
2023/04/25 09:54:43;;;;;;;5.27;1.80;;;10.60;45.00;;;;;;5035999;28;20410;-66
2023/04/25 09:57:12;;;;;;;3.43;1.40;;;10.70;45.00;;;;;;5036782;28;20444;-63
2023/04/25 09:59:43;;;;;;;4.63;3.10;;;10.90;45.10;;;;;;5035261;28;20487;-63
2023/04/25 10:02:11;;;;;;;4.07;1.30;;;11.10;45.20;;;;;;5036171;28;20464;-63
2023/04/25 10:04:42;;;;;;;4.33;1.50;;;11.40;44.50;;;;;;5036153;28;20472;-64
2023/04/25 10:07:14;;;;;;;4.00;1.73;;;11.30;43.60;;;;;;5035181;28;20455;-65
2023/04/25 10:09:41;;;;;;;7.17;2.07;;;11.30;44.00;;;;;;5035441;28;20428;-63
2023/04/25 10:12:09;;;;;;;5.47;1.77;;;11.30;44.30;;;;;;5034973;28;20552;-64
2023/04/25 10:14:36;;;;;;;2.93;1.37;;;11.40;44.50;;;;;;5035404;28;20450;-63
2023/04/25 10:17:03;;;;;;;2.93;1.30;;;11.30;44.50;;;;;;5034710;28;20449;-62
2023/04/25 10:19:31;;;;;;;3.97;2.30;;;11.20;44.30;;;;;;5034760;28;20453;-64
2023/04/25 10:22:06;;;;;;;1.83;1.40;;;11.00;44.50;;;;;;5034147;28;20520;-64
2023/04/25 10:24:36;;;;;;;5.60;1.83;;;10.80;45.00;;;;;;5034890;28;20429;-64
2023/04/25 10:27:03;;;;;;;6.40;2.03;;;10.70;45.60;;;;;;5034691;28;20445;-63
2023/04/25 10:29:30;;;;;;;6.60;1.63;;;10.60;46.10;;;;;;5034552;28;20448;-64
2023/04/25 10:31:58;;;;;;;4.20;2.20;;;10.70;46.40;;;;;;5034112;28;21024;-63
2023/04/25 10:34:38;;;;;;;5.30;2.20;;;10.60;46.20;;;;;;5034414;28;20449;-64
2023/04/25 10:37:06;;;;;;;8.97;2.70;;;10.50;46.10;;;;;;5034174;28;20514;-63
2023/04/25 10:39:35;;;;;;;7.17;2.00;;;10.50;46.90;;;;;;5034270;28;20444;-63
2023/04/25 10:42:03;;;;;;;4.97;1.80;;;10.50;47.70;;;;;;5034330;28;20484;-63
2023/04/25 10:44:31;;;;;;;6.53;2.60;;;10.50;48.00;;;;;;5034396;28;20540;-63
2023/04/25 10:46:58;;;;;;;4.20;2.10;;;10.50;48.10;;;;;;5034269;28;20449;-64
2023/04/25 10:49:33;;;;;;;5.40;2.30;;;10.50;48.10;;;;;;5034521;28;20441;-62
2023/04/25 10:52:17;;;;;;;5.53;2.17;;;10.50;48.40;;;;;;5034397;28;20511;-63
2023/04/25 10:54:49;;;;;;;5.47;2.30;;;10.60;48.30;;;;;;5036111;28;20433;-63
2023/04/25 10:57:36;;;;;;;4.20;1.87;;;10.70;48.30;;;;;;5035602;28;20467;-64
2023/04/25 11:00:09;;;;;;;2.70;1.57;;;10.80;48.20;;;;;;5035963;28;20434;-64
2023/04/25 11:02:41;;;;;;;6.23;1.77;;;11.00;48.00;;;;;;5034945;28;20461;-64
2023/04/25 11:05:09;;;;;;;2.53;1.67;;;11.00;47.20;;;;;;5034481;28;20433;-64
2023/04/25 11:07:43;;;;;;;5.07;1.80;;;11.00;46.90;;;;;;5035550;28;20914;-61
2023/04/25 11:10:11;;;;;;;3.83;1.63;;;11.00;46.00;;;;;;5035001;28;20433;-63
2023/04/25 11:12:38;;;;;;;2.97;1.37;;;10.80;46.00;;;;;;5034123;28;20481;-64
2023/04/25 11:15:07;;;;;;;3.23;1.40;;;10.60;46.50;;;;;;5035334;28;20445;-65
2023/04/25 11:17:34;;;;;;;2.93;1.50;;;10.40;46.90;;;;;;5035223;28;20441;-64
2023/04/25 11:20:01;;;;;;;3.97;2.03;;;10.50;47.30;;;;;;5034659;28;20451;-63
2023/04/25 11:22:29;;;;;;;3.63;1.57;;;10.70;47.40;;;;;;5034738;28;20473;-63
2023/04/25 11:24:56;;;;;;;3.70;1.70;;;10.80;46.90;;;;;;5034790;28;20453;-63
2023/04/25 11:27:25;;;;;;;5.47;1.87;;;11.10;46.20;;;;;;5034336;28;20529;-62
2023/04/25 11:29:52;;;;;;;3.40;1.80;;;11.40;45.10;;;;;;5034122;28;20441;-64
2023/04/25 11:32:20;;;;;;;6.47;2.87;;;11.60;44.90;;;;;;5034764;28;20487;-64
2023/04/25 11:34:47;;;;;;;7.70;2.70;;;11.40;45.20;;;;;;5034250;28;20514;-64
2023/04/25 11:37:14;;;;;;;4.03;1.80;;;11.00;45.90;;;;;;5033608;28;20445;-64
2023/04/25 11:39:45;;;;;;;4.77;1.80;;;10.60;46.80;;;;;;5033662;28;20459;-64
2023/04/25 11:42:12;;;;;;;5.83;1.63;;;10.20;47.80;;;;;;5033809;28;20456;-67
2023/04/25 11:44:41;;;;;;;5.23;1.97;;;9.90;49.70;;;;;;5033417;28;20437;-63
2023/04/25 11:47:08;;;;;;;4.00;1.90;;;9.70;51.60;;;;;;5033909;28;20536;-65
2023/04/25 11:49:36;;;;;;;5.20;2.30;;;9.40;53.60;;;;;;5033285;28;20496;-63
2023/04/25 11:52:02;;;;;;;3.13;1.77;;;9.20;55.80;;;;;;5033193;28;20250;-64
2023/04/25 11:54:29;;;;;;;6.72;2.28;;;9.00;57.30;;;;;;5033226;28;20199;-63
2023/04/25 11:56:57;;;;;;;4.67;3.20;;;8.90;58.10;;;;;;5033345;28;20208;-64
2023/04/25 11:59:26;;;;;;;3.92;1.95;;;9.10;58.40;;;;;;5033303;28;20499;-65
2023/04/25 12:01:54;;;;;;;6.07;2.13;;;9.30;58.30;;;;;;5033256;28;20703;-63
2023/04/25 12:04:22;;;;;;;2.40;1.97;;;9.60;57.90;;;;;;5032782;28;20577;-65
2023/04/25 12:06:51;;;;;;;4.03;1.80;;;9.80;57.20;;;;;;5033271;28;20445;-65
2023/04/25 12:09:21;;;;;;;4.53;1.73;;;10.00;55.40;;;;;;5033284;28;20470;-63
2023/04/25 12:11:53;;;;;;;4.05;1.70;;;10.20;54.60;;;;;;5033360;28;20445;-65
2023/04/25 12:14:24;;;;;;;6.00;1.60;;;10.30;53.60;;;;;;5033864;28;20727;-63
2023/04/25 12:16:52;;;;;;;3.20;1.60;;;10.40;53.30;;;;;;5033872;28;20445;-62
2023/04/25 12:19:21;;;;;;;5.23;1.87;;;10.60;52.60;;;;;;5034895;28;20445;-64
2023/04/25 12:21:48;;;;;;;2.87;1.37;;;11.00;51.90;;;;;;5035164;28;20476;-61
2023/04/25 12:24:16;;;;;;;8.30;1.40;;;11.30;51.10;;;;;;5035443;28;20452;-63
2023/04/25 12:26:51;;;;;;;1.93;1.10;;;11.60;49.80;;;;;;5034965;28;20445;-64
2023/04/25 12:29:23;;;;;;;1.50;0.97;;;11.60;47.50;;;;;;5034735;28;20489;-64
2023/04/25 12:31:51;;;;;;;4.20;1.30;;;11.60;46.10;;;;;;5035935;28;20466;-63
2023/04/25 12:34:17;;;;;;;2.60;1.30;;;11.60;44.10;;;;;;5038682;28;20524;-63
2023/04/25 12:36:46;;;;;;;4.40;1.37;;;11.60;43.50;;;;;;5038227;28;20447;-63
2023/04/25 12:39:16;;;;;;;3.53;1.43;;;11.50;43.20;;;;;;5039638;28;20465;-63
2023/04/25 12:41:43;;;;;;;5.10;1.20;;;11.50;43.80;;;;;;5040186;28;20983;-63
2023/04/25 12:44:10;;;;;;;2.57;1.53;;;11.20;45.10;;;;;;5039527;28;20451;-63
2023/04/25 12:46:37;;;;;;;2.00;1.00;;;11.00;45.70;;;;;;5040896;28;20445;-62
2023/04/25 12:49:06;;;;;;;2.43;1.57;;;10.70;46.10;;;;;;5039662;28;20440;-62
2023/04/25 12:51:32;;;;;;;1.80;1.03;;;10.30;46.40;;;;;;5038864;28;20546;-62
2023/04/25 12:54:01;;;;;;;2.73;1.10;;;9.90;47.90;;;;;;5036951;28;21017;-63
2023/04/25 12:56:28;;;;;;;3.37;1.40;;;9.70;48.60;;;;;;5037591;28;20445;-66